sensor_id;sensor_type;location;lat;lon;timestamp;P1;durP1;ratioP1;P2;durP2;ratioP2
16025;SDS011;8117;52.488;13.460;2022-09-13T00:00:22;2.23;;;1.50;;
16025;SDS011;8117;52.488;13.460;2022-09-13T00:02:49;1.30;;;1.20;;
16025;SDS011;8117;52.488;13.460;2022-09-13T00:05:18;1.43;;;1.13;;
16025;SDS011;8117;52.488;13.460;2022-09-13T00:07:45;1.37;;;1.27;;
16025;SDS011;8117;52.488;13.460;2022-09-13T00:10:11;1.43;;;1.33;;
16025;SDS011;8117;52.488;13.460;2022-09-13T00:12:38;1.60;;;1.50;;
16025;SDS011;8117;52.488;13.460;2022-09-13T00:15:05;1.70;;;1.60;;
16025;SDS011;8117;52.488;13.460;2022-09-13T00:17:34;1.73;;;1.57;;
16025;SDS011;8117;52.488;13.460;2022-09-13T00:20:01;1.50;;;1.40;;
16025;SDS011;8117;52.488;13.460;2022-09-13T00:22:28;1.67;;;1.20;;
16025;SDS011;8117;52.488;13.460;2022-09-13T00:24:54;1.80;;;1.47;;
16025;SDS011;8117;52.488;13.460;2022-09-13T00:27:21;1.80;;;1.07;;
16025;SDS011;8117;52.488;13.460;2022-09-13T00:29:47;1.80;;;1.40;;
16025;SDS011;8117;52.488;13.460;2022-09-13T00:32:15;1.40;;;1.30;;
16025;SDS011;8117;52.488;13.460;2022-09-13T00:34:45;1.67;;;1.37;;
16025;SDS011;8117;52.488;13.460;2022-09-13T00:37:12;1.40;;;1.20;;
16025;SDS011;8117;52.488;13.460;2022-09-13T00:39:38;2.10;;;1.70;;
16025;SDS011;8117;52.488;13.460;2022-09-13T00:42:05;1.50;;;1.13;;
16025;SDS011;8117;52.488;13.460;2022-09-13T00:44:48;1.40;;;1.10;;
16025;SDS011;8117;52.488;13.460;2022-09-13T00:47:22;2.30;;;1.50;;
16025;SDS011;8117;52.488;13.460;2022-09-13T00:49:53;1.40;;;1.20;;
16025;SDS011;8117;52.488;13.460;2022-09-13T00:52:23;1.53;;;1.00;;
16025;SDS011;8117;52.488;13.460;2022-09-13T00:54:51;1.80;;;1.30;;
16025;SDS011;8117;52.488;13.460;2022-09-13T00:57:24;1.50;;;1.40;;
16025;SDS011;8117;52.488;13.460;2022-09-13T00:59:52;1.50;;;1.37;;
16025;SDS011;8117;52.488;13.460;2022-09-13T01:02:24;1.60;;;1.40;;
16025;SDS011;8117;52.488;13.460;2022-09-13T01:04:52;1.60;;;1.47;;
16025;SDS011;8117;52.488;13.460;2022-09-13T01:07:19;1.30;;;1.20;;
16025;SDS011;8117;52.488;13.460;2022-09-13T01:09:46;2.10;;;1.80;;
16025;SDS011;8117;52.488;13.460;2022-09-13T01:12:16;1.40;;;1.17;;
16025;SDS011;8117;52.488;13.460;2022-09-13T01:14:48;1.50;;;1.40;;
16025;SDS011;8117;52.488;13.460;2022-09-13T01:17:17;1.20;;;1.10;;
16025;SDS011;8117;52.488;13.460;2022-09-13T01:19:44;2.00;;;1.40;;
16025;SDS011;8117;52.488;13.460;2022-09-13T01:22:26;1.33;;;1.20;;
16025;SDS011;8117;52.488;13.460;2022-09-13T01:25:22;1.50;;;1.27;;
16025;SDS011;8117;52.488;13.460;2022-09-13T01:28:17;1.60;;;0.97;;
16025;SDS011;8117;52.488;13.460;2022-09-13T01:30:57;3.03;;;1.20;;
16025;SDS011;8117;52.488;13.460;2022-09-13T01:33:34;1.87;;;1.33;;
16025;SDS011;8117;52.488;13.460;2022-09-13T01:36:10;1.37;;;1.17;;
16025;SDS011;8117;52.488;13.460;2022-09-13T01:38:48;1.30;;;1.20;;
16025;SDS011;8117;52.488;13.460;2022-09-13T01:41:26;1.73;;;1.20;;
16025;SDS011;8117;52.488;13.460;2022-09-13T01:44:03;1.50;;;1.37;;
16025;SDS011;8117;52.488;13.460;2022-09-13T01:46:37;1.73;;;1.60;;
16025;SDS011;8117;52.488;13.460;2022-09-13T01:49:09;1.77;;;1.23;;
16025;SDS011;8117;52.488;13.460;2022-09-13T01:51:43;1.60;;;1.33;;
16025;SDS011;8117;52.488;13.460;2022-09-13T01:54:15;1.67;;;1.40;;
16025;SDS011;8117;52.488;13.460;2022-09-13T01:56:46;1.63;;;1.53;;
16025;SDS011;8117;52.488;13.460;2022-09-13T01:59:18;1.30;;;1.20;;
16025;SDS011;8117;52.488;13.460;2022-09-13T02:01:48;1.83;;;1.40;;
16025;SDS011;8117;52.488;13.460;2022-09-13T02:04:21;1.43;;;1.33;;
16025;SDS011;8117;52.488;13.460;2022-09-13T02:06:50;1.93;;;1.50;;
16025;SDS011;8117;52.488;13.460;2022-09-13T02:09:19;2.07;;;1.27;;
16025;SDS011;8117;52.488;13.460;2022-09-13T02:11:48;1.47;;;1.10;;
16025;SDS011;8117;52.488;13.460;2022-09-13T02:14:17;1.40;;;1.30;;
16025;SDS011;8117;52.488;13.460;2022-09-13T02:16:48;2.27;;;1.57;;
16025;SDS011;8117;52.488;13.460;2022-09-13T02:19:18;1.83;;;1.30;;
16025;SDS011;8117;52.488;13.460;2022-09-13T02:21:48;1.50;;;1.40;;
16025;SDS011;8117;52.488;13.460;2022-09-13T02:24:19;1.13;;;1.07;;
16025;SDS011;8117;52.488;13.460;2022-09-13T02:26:49;1.10;;;1.00;;
16025;SDS011;8117;52.488;13.460;2022-09-13T02:29:18;1.60;;;1.33;;
16025;SDS011;8117;52.488;13.460;2022-09-13T02:31:46;1.50;;;1.37;;
16025;SDS011;8117;52.488;13.460;2022-09-13T02:34:18;1.17;;;1.07;;
16025;SDS011;8117;52.488;13.460;2022-09-13T02:36:48;2.30;;;1.40;;
16025;SDS011;8117;52.488;13.460;2022-09-13T02:39:17;1.83;;;1.40;;
16025;SDS011;8117;52.488;13.460;2022-09-13T02:41:47;1.80;;;1.50;;
16025;SDS011;8117;52.488;13.460;2022-09-13T02:44:18;1.73;;;1.60;;
16025;SDS011;8117;52.488;13.460;2022-09-13T02:46:55;1.47;;;1.13;;
16025;SDS011;8117;52.488;13.460;2022-09-13T02:49:29;2.40;;;1.43;;
16025;SDS011;8117;52.488;13.460;2022-09-13T02:52:03;1.90;;;1.27;;
16025;SDS011;8117;52.488;13.460;2022-09-13T02:54:34;1.33;;;1.10;;
16025;SDS011;8117;52.488;13.460;2022-09-13T02:57:05;1.33;;;1.23;;
16025;SDS011;8117;52.488;13.460;2022-09-13T02:59:35;2.40;;;1.30;;
16025;SDS011;8117;52.488;13.460;2022-09-13T03:02:04;1.33;;;1.10;;
16025;SDS011;8117;52.488;13.460;2022-09-13T03:04:32;2.17;;;1.07;;
16025;SDS011;8117;52.488;13.460;2022-09-13T03:06:59;1.43;;;1.10;;
16025;SDS011;8117;52.488;13.460;2022-09-13T03:09:28;1.27;;;1.17;;
16025;SDS011;8117;52.488;13.460;2022-09-13T03:11:58;1.47;;;1.37;;
16025;SDS011;8117;52.488;13.460;2022-09-13T03:14:45;1.47;;;1.37;;
16025;SDS011;8117;52.488;13.460;2022-09-13T03:17:23;1.20;;;1.10;;
16025;SDS011;8117;52.488;13.460;2022-09-13T03:25:50;2.53;;;2.07;;
16025;SDS011;8117;52.488;13.460;2022-09-13T03:28:27;1.90;;;1.80;;
16025;SDS011;8117;52.488;13.460;2022-09-13T03:31:01;2.03;;;1.57;;
16025;SDS011;8117;52.488;13.460;2022-09-13T03:33:33;1.70;;;1.60;;
16025;SDS011;8117;52.488;13.460;2022-09-13T03:36:07;1.30;;;1.00;;
16025;SDS011;8117;52.488;13.460;2022-09-13T03:38:38;3.80;;;1.77;;
16025;SDS011;8117;52.488;13.460;2022-09-13T03:41:08;2.03;;;1.53;;
16025;SDS011;8117;52.488;13.460;2022-09-13T03:43:37;2.57;;;1.90;;
16025;SDS011;8117;52.488;13.460;2022-09-13T03:46:08;1.87;;;1.47;;
16025;SDS011;8117;52.488;13.460;2022-09-13T03:48:38;1.20;;;1.10;;
16025;SDS011;8117;52.488;13.460;2022-09-13T03:51:06;1.30;;;1.20;;
16025;SDS011;8117;52.488;13.460;2022-09-13T03:53:35;1.17;;;1.03;;
16025;SDS011;8117;52.488;13.460;2022-09-13T03:56:10;2.20;;;1.60;;
16025;SDS011;8117;52.488;13.460;2022-09-13T03:58:38;1.50;;;1.40;;
16025;SDS011;8117;52.488;13.460;2022-09-13T04:01:05;1.60;;;1.50;;
16025;SDS011;8117;52.488;13.460;2022-09-13T04:03:32;1.60;;;1.30;;
16025;SDS011;8117;52.488;13.460;2022-09-13T04:05:59;1.40;;;1.20;;
16025;SDS011;8117;52.488;13.460;2022-09-13T04:08:26;1.73;;;1.20;;
16025;SDS011;8117;52.488;13.460;2022-09-13T04:10:53;1.50;;;1.40;;
16025;SDS011;8117;52.488;13.460;2022-09-13T04:13:22;1.73;;;1.60;;
16025;SDS011;8117;52.488;13.460;2022-09-13T04:15:49;2.30;;;2.10;;
16025;SDS011;8117;52.488;13.460;2022-09-13T04:18:15;1.83;;;1.60;;
16025;SDS011;8117;52.488;13.460;2022-09-13T04:20:42;1.20;;;1.10;;
16025;SDS011;8117;52.488;13.460;2022-09-13T04:23:10;3.77;;;1.70;;
16025;SDS011;8117;52.488;13.460;2022-09-13T04:25:37;1.90;;;1.60;;
16025;SDS011;8117;52.488;13.460;2022-09-13T04:28:04;2.20;;;1.47;;
16025;SDS011;8117;52.488;13.460;2022-09-13T04:30:31;1.57;;;1.43;;
16025;SDS011;8117;52.488;13.460;2022-09-13T04:33:00;1.40;;;1.10;;
16025;SDS011;8117;52.488;13.460;2022-09-13T04:35:26;2.83;;;1.60;;
16025;SDS011;8117;52.488;13.460;2022-09-13T04:37:55;1.90;;;1.53;;
16025;SDS011;8117;52.488;13.460;2022-09-13T04:40:23;2.40;;;1.63;;
16025;SDS011;8117;52.488;13.460;2022-09-13T04:42:50;2.20;;;2.00;;
16025;SDS011;8117;52.488;13.460;2022-09-13T04:45:16;1.87;;;1.70;;
16025;SDS011;8117;52.488;13.460;2022-09-13T04:47:43;1.47;;;1.03;;
16025;SDS011;8117;52.488;13.460;2022-09-13T04:50:10;13.33;;;1.80;;
16025;SDS011;8117;52.488;13.460;2022-09-13T04:52:36;2.43;;;2.00;;
16025;SDS011;8117;52.488;13.460;2022-09-13T04:55:05;2.57;;;1.57;;
16025;SDS011;8117;52.488;13.460;2022-09-13T04:57:33;1.90;;;1.60;;
16025;SDS011;8117;52.488;13.460;2022-09-13T05:00:00;2.33;;;1.70;;
16025;SDS011;8117;52.488;13.460;2022-09-13T05:02:27;2.20;;;1.67;;
16025;SDS011;8117;52.488;13.460;2022-09-13T05:04:54;2.03;;;1.60;;
16025;SDS011;8117;52.488;13.460;2022-09-13T05:07:26;3.07;;;1.83;;
16025;SDS011;8117;52.488;13.460;2022-09-13T05:09:54;2.30;;;1.90;;
16025;SDS011;8117;52.488;13.460;2022-09-13T05:12:23;1.47;;;1.30;;
16025;SDS011;8117;52.488;13.460;2022-09-13T05:14:53;1.50;;;1.20;;
16025;SDS011;8117;52.488;13.460;2022-09-13T05:17:20;7.30;;;1.83;;
16025;SDS011;8117;52.488;13.460;2022-09-13T05:19:47;2.27;;;1.90;;
16025;SDS011;8117;52.488;13.460;2022-09-13T05:22:18;1.73;;;1.50;;
16025;SDS011;8117;52.488;13.460;2022-09-13T05:24:44;2.10;;;1.60;;
16025;SDS011;8117;52.488;13.460;2022-09-13T05:27:11;2.40;;;1.83;;
16025;SDS011;8117;52.488;13.460;2022-09-13T05:29:37;2.10;;;1.77;;
16025;SDS011;8117;52.488;13.460;2022-09-13T05:32:05;1.90;;;1.70;;
16025;SDS011;8117;52.488;13.460;2022-09-13T05:34:34;1.90;;;1.80;;
16025;SDS011;8117;52.488;13.460;2022-09-13T05:37:01;2.13;;;1.90;;
16025;SDS011;8117;52.488;13.460;2022-09-13T05:39:27;3.73;;;2.27;;
16025;SDS011;8117;52.488;13.460;2022-09-13T05:41:54;5.67;;;2.63;;
16025;SDS011;8117;52.488;13.460;2022-09-13T05:44:21;3.33;;;2.30;;
16025;SDS011;8117;52.488;13.460;2022-09-13T05:46:47;4.20;;;1.73;;
16025;SDS011;8117;52.488;13.460;2022-09-13T05:49:15;4.33;;;2.53;;
16025;SDS011;8117;52.488;13.460;2022-09-13T05:51:43;3.00;;;2.40;;
16025;SDS011;8117;52.488;13.460;2022-09-13T05:54:10;2.50;;;1.90;;
16025;SDS011;8117;52.488;13.460;2022-09-13T05:56:37;2.67;;;2.10;;
16025;SDS011;8117;52.488;13.460;2022-09-13T05:59:04;2.57;;;1.67;;
16025;SDS011;8117;52.488;13.460;2022-09-13T06:01:30;3.00;;;2.17;;
16025;SDS011;8117;52.488;13.460;2022-09-13T06:03:57;3.10;;;2.07;;
16025;SDS011;8117;52.488;13.460;2022-09-13T06:06:26;3.13;;;1.57;;
16025;SDS011;8117;52.488;13.460;2022-09-13T06:08:52;3.07;;;2.07;;
16025;SDS011;8117;52.488;13.460;2022-09-13T06:11:19;2.67;;;1.90;;
16025;SDS011;8117;52.488;13.460;2022-09-13T06:13:46;2.57;;;1.60;;
16025;SDS011;8117;52.488;13.460;2022-09-13T06:16:13;4.13;;;1.83;;
16025;SDS011;8117;52.488;13.460;2022-09-13T06:18:40;5.87;;;2.37;;
16025;SDS011;8117;52.488;13.460;2022-09-13T06:21:07;5.00;;;2.30;;
16025;SDS011;8117;52.488;13.460;2022-09-13T06:23:36;4.27;;;2.63;;
16025;SDS011;8117;52.488;13.460;2022-09-13T06:26:03;2.40;;;2.03;;
16025;SDS011;8117;52.488;13.460;2022-09-13T06:28:30;3.23;;;2.33;;
16025;SDS011;8117;52.488;13.460;2022-09-13T06:31:00;2.47;;;2.27;;
16025;SDS011;8117;52.488;13.460;2022-09-13T06:33:27;3.10;;;2.17;;
16025;SDS011;8117;52.488;13.460;2022-09-13T06:35:54;3.23;;;2.93;;
16025;SDS011;8117;52.488;13.460;2022-09-13T06:38:20;3.60;;;2.63;;
16025;SDS011;8117;52.488;13.460;2022-09-13T06:40:57;4.27;;;2.17;;
16025;SDS011;8117;52.488;13.460;2022-09-13T06:43:24;4.10;;;2.30;;
16025;SDS011;8117;52.488;13.460;2022-09-13T06:45:51;3.07;;;2.40;;
16025;SDS011;8117;52.488;13.460;2022-09-13T06:48:18;2.90;;;2.50;;
16025;SDS011;8117;52.488;13.460;2022-09-13T06:50:45;2.60;;;2.37;;
16025;SDS011;8117;52.488;13.460;2022-09-13T06:53:11;4.13;;;2.40;;
16025;SDS011;8117;52.488;13.460;2022-09-13T06:55:38;3.20;;;2.30;;
16025;SDS011;8117;52.488;13.460;2022-09-13T06:58:05;3.73;;;2.50;;
16025;SDS011;8117;52.488;13.460;2022-09-13T07:00:32;4.03;;;2.63;;
16025;SDS011;8117;52.488;13.460;2022-09-13T07:02:58;3.73;;;2.33;;
16025;SDS011;8117;52.488;13.460;2022-09-13T07:05:25;3.00;;;2.33;;
16025;SDS011;8117;52.488;13.460;2022-09-13T07:07:51;4.33;;;2.80;;
16025;SDS011;8117;52.488;13.460;2022-09-13T07:10:18;5.90;;;3.07;;
16025;SDS011;8117;52.488;13.460;2022-09-13T07:12:44;3.00;;;2.70;;
16025;SDS011;8117;52.488;13.460;2022-09-13T07:15:13;4.30;;;2.80;;
16025;SDS011;8117;52.488;13.460;2022-09-13T07:17:39;5.40;;;2.70;;
16025;SDS011;8117;52.488;13.460;2022-09-13T07:20:06;4.20;;;3.10;;
16025;SDS011;8117;52.488;13.460;2022-09-13T07:22:33;4.63;;;3.40;;
16025;SDS011;8117;52.488;13.460;2022-09-13T07:25:00;4.67;;;2.80;;
16025;SDS011;8117;52.488;13.460;2022-09-13T07:27:26;4.83;;;2.70;;
16025;SDS011;8117;52.488;13.460;2022-09-13T07:29:54;4.80;;;2.90;;
16025;SDS011;8117;52.488;13.460;2022-09-13T07:32:23;4.07;;;2.83;;
16025;SDS011;8117;52.488;13.460;2022-09-13T07:34:49;4.80;;;2.90;;
16025;SDS011;8117;52.488;13.460;2022-09-13T07:37:16;6.10;;;3.70;;
16025;SDS011;8117;52.488;13.460;2022-09-13T07:39:42;4.07;;;3.50;;
16025;SDS011;8117;52.488;13.460;2022-09-13T07:42:09;6.57;;;2.93;;
16025;SDS011;8117;52.488;13.460;2022-09-13T07:44:35;5.37;;;3.00;;
16025;SDS011;8117;52.488;13.460;2022-09-13T07:47:02;5.00;;;2.57;;
16025;SDS011;8117;52.488;13.460;2022-09-13T07:49:30;7.80;;;2.80;;
16025;SDS011;8117;52.488;13.460;2022-09-13T07:51:56;5.87;;;3.37;;
16025;SDS011;8117;52.488;13.460;2022-09-13T07:54:23;3.37;;;2.83;;
16025;SDS011;8117;52.488;13.460;2022-09-13T07:56:49;7.33;;;3.73;;
16025;SDS011;8117;52.488;13.460;2022-09-13T07:59:16;5.53;;;2.97;;
16025;SDS011;8117;52.488;13.460;2022-09-13T08:01:44;4.60;;;2.73;;
16025;SDS011;8117;52.488;13.460;2022-09-13T08:04:12;3.77;;;2.50;;
16025;SDS011;8117;52.488;13.460;2022-09-13T08:06:42;6.93;;;3.33;;
16025;SDS011;8117;52.488;13.460;2022-09-13T08:09:09;3.63;;;2.77;;
16025;SDS011;8117;52.488;13.460;2022-09-13T08:11:36;4.23;;;2.83;;
16025;SDS011;8117;52.488;13.460;2022-09-13T08:14:04;3.73;;;2.73;;
16025;SDS011;8117;52.488;13.460;2022-09-13T08:16:32;3.97;;;3.10;;
16025;SDS011;8117;52.488;13.460;2022-09-13T08:18:59;3.63;;;2.83;;
16025;SDS011;8117;52.488;13.460;2022-09-13T08:21:30;4.70;;;3.00;;
16025;SDS011;8117;52.488;13.460;2022-09-13T08:23:59;3.70;;;2.90;;
16025;SDS011;8117;52.488;13.460;2022-09-13T08:26:26;4.43;;;2.90;;
16025;SDS011;8117;52.488;13.460;2022-09-13T08:28:57;2.80;;;2.40;;
16025;SDS011;8117;52.488;13.460;2022-09-13T08:31:26;5.23;;;2.93;;
16025;SDS011;8117;52.488;13.460;2022-09-13T08:33:53;3.37;;;2.53;;
16025;SDS011;8117;52.488;13.460;2022-09-13T08:36:20;2.93;;;2.30;;
16025;SDS011;8117;52.488;13.460;2022-09-13T08:38:48;3.07;;;2.20;;
16025;SDS011;8117;52.488;13.460;2022-09-13T08:41:24;3.50;;;2.63;;
16025;SDS011;8117;52.488;13.460;2022-09-13T08:43:58;3.23;;;2.67;;
16025;SDS011;8117;52.488;13.460;2022-09-13T08:46:29;3.27;;;2.53;;
16025;SDS011;8117;52.488;13.460;2022-09-13T08:48:59;4.43;;;2.53;;
16025;SDS011;8117;52.488;13.460;2022-09-13T08:51:30;3.57;;;2.37;;
16025;SDS011;8117;52.488;13.460;2022-09-13T08:53:58;3.87;;;2.40;;
16025;SDS011;8117;52.488;13.460;2022-09-13T08:56:28;3.83;;;2.83;;
16025;SDS011;8117;52.488;13.460;2022-09-13T08:59:15;4.20;;;2.67;;
16025;SDS011;8117;52.488;13.460;2022-09-13T09:01:53;5.13;;;3.77;;
16025;SDS011;8117;52.488;13.460;2022-09-13T09:04:29;5.27;;;2.87;;
16025;SDS011;8117;52.488;13.460;2022-09-13T09:07:02;3.23;;;2.93;;
16025;SDS011;8117;52.488;13.460;2022-09-13T09:09:31;7.97;;;3.10;;
16025;SDS011;8117;52.488;13.460;2022-09-13T09:12:05;3.60;;;2.90;;
16025;SDS011;8117;52.488;13.460;2022-09-13T09:14:37;5.20;;;3.20;;
16025;SDS011;8117;52.488;13.460;2022-09-13T09:17:11;4.50;;;2.83;;
16025;SDS011;8117;52.488;13.460;2022-09-13T09:19:39;3.30;;;2.30;;
16025;SDS011;8117;52.488;13.460;2022-09-13T09:22:10;3.93;;;2.20;;
16025;SDS011;8117;52.488;13.460;2022-09-13T09:24:39;3.70;;;2.30;;
16025;SDS011;8117;52.488;13.460;2022-09-13T09:27:13;2.47;;;2.27;;
16025;SDS011;8117;52.488;13.460;2022-09-13T09:29:41;3.87;;;2.73;;
16025;SDS011;8117;52.488;13.460;2022-09-13T09:32:11;3.60;;;2.97;;
16025;SDS011;8117;52.488;13.460;2022-09-13T09:34:46;3.77;;;2.70;;
16025;SDS011;8117;52.488;13.460;2022-09-13T09:37:18;3.57;;;2.13;;
16025;SDS011;8117;52.488;13.460;2022-09-13T09:39:46;3.57;;;2.40;;
16025;SDS011;8117;52.488;13.460;2022-09-13T09:42:15;3.50;;;2.87;;
16025;SDS011;8117;52.488;13.460;2022-09-13T09:44:44;4.07;;;2.43;;
16025;SDS011;8117;52.488;13.460;2022-09-13T09:47:14;3.03;;;1.70;;
16025;SDS011;8117;52.488;13.460;2022-09-13T09:49:42;4.67;;;2.77;;
16025;SDS011;8117;52.488;13.460;2022-09-13T09:52:30;4.70;;;2.23;;
16025;SDS011;8117;52.488;13.460;2022-09-13T09:55:11;2.63;;;2.13;;
16025;SDS011;8117;52.488;13.460;2022-09-13T09:57:54;4.33;;;2.40;;
16025;SDS011;8117;52.488;13.460;2022-09-13T10:00:23;3.33;;;2.10;;
16025;SDS011;8117;52.488;13.460;2022-09-13T10:02:54;6.83;;;2.23;;
16025;SDS011;8117;52.488;13.460;2022-09-13T10:05:23;3.20;;;2.10;;
16025;SDS011;8117;52.488;13.460;2022-09-13T10:07:56;3.13;;;2.47;;
16025;SDS011;8117;52.488;13.460;2022-09-13T10:10:29;3.63;;;2.27;;
16025;SDS011;8117;52.488;13.460;2022-09-13T10:13:11;2.57;;;2.03;;
16025;SDS011;8117;52.488;13.460;2022-09-13T10:15:42;3.97;;;2.70;;
16025;SDS011;8117;52.488;13.460;2022-09-13T10:18:19;2.20;;;1.90;;
16025;SDS011;8117;52.488;13.460;2022-09-13T10:20:58;2.30;;;2.07;;
16025;SDS011;8117;52.488;13.460;2022-09-13T10:23:26;5.10;;;2.13;;
16025;SDS011;8117;52.488;13.460;2022-09-13T10:25:57;1.87;;;1.60;;
16025;SDS011;8117;52.488;13.460;2022-09-13T10:28:40;3.43;;;1.93;;
16025;SDS011;8117;52.488;13.460;2022-09-13T10:31:12;4.37;;;2.27;;
16025;SDS011;8117;52.488;13.460;2022-09-13T10:33:41;2.63;;;2.10;;
16025;SDS011;8117;52.488;13.460;2022-09-13T10:36:11;4.47;;;2.40;;
16025;SDS011;8117;52.488;13.460;2022-09-13T10:38:40;3.00;;;1.83;;
16025;SDS011;8117;52.488;13.460;2022-09-13T10:41:08;3.90;;;2.47;;
16025;SDS011;8117;52.488;13.460;2022-09-13T10:43:37;4.23;;;2.27;;
16025;SDS011;8117;52.488;13.460;2022-09-13T10:46:04;2.00;;;1.60;;
16025;SDS011;8117;52.488;13.460;2022-09-13T10:48:42;2.57;;;1.90;;
16025;SDS011;8117;52.488;13.460;2022-09-13T10:51:17;2.60;;;2.00;;
16025;SDS011;8117;52.488;13.460;2022-09-13T10:53:46;3.00;;;2.10;;
16025;SDS011;8117;52.488;13.460;2022-09-13T10:56:18;3.27;;;2.27;;
16025;SDS011;8117;52.488;13.460;2022-09-13T10:58:46;3.00;;;1.80;;
16025;SDS011;8117;52.488;13.460;2022-09-13T11:04:02;4.27;;;2.70;;
16025;SDS011;8117;52.488;13.460;2022-09-13T11:10:09;4.23;;;2.83;;
16025;SDS011;8117;52.488;13.460;2022-09-13T11:12:40;4.00;;;2.80;;
16025;SDS011;8117;52.488;13.460;2022-09-13T11:15:15;3.70;;;2.60;;
16025;SDS011;8117;52.488;13.460;2022-09-13T11:20:51;2.20;;;1.87;;
16025;SDS011;8117;52.488;13.460;2022-09-13T11:23:26;3.43;;;2.50;;
16025;SDS011;8117;52.488;13.460;2022-09-13T11:26:04;2.77;;;2.00;;
16025;SDS011;8117;52.488;13.460;2022-09-13T11:28:41;5.77;;;2.03;;
16025;SDS011;8117;52.488;13.460;2022-09-13T11:31:26;2.60;;;2.17;;
16025;SDS011;8117;52.488;13.460;2022-09-13T11:34:03;3.90;;;2.43;;
16025;SDS011;8117;52.488;13.460;2022-09-13T11:36:49;4.20;;;2.13;;
16025;SDS011;8117;52.488;13.460;2022-09-13T11:39:27;5.97;;;1.93;;
16025;SDS011;8117;52.488;13.460;2022-09-13T11:41:59;3.27;;;2.17;;
16025;SDS011;8117;52.488;13.460;2022-09-13T11:44:38;9.07;;;2.90;;
16025;SDS011;8117;52.488;13.460;2022-09-13T11:47:17;2.57;;;2.37;;
16025;SDS011;8117;52.488;13.460;2022-09-13T11:50:02;4.43;;;2.53;;
16025;SDS011;8117;52.488;13.460;2022-09-13T11:52:41;3.60;;;1.90;;
16025;SDS011;8117;52.488;13.460;2022-09-13T11:55:13;2.73;;;2.13;;
16025;SDS011;8117;52.488;13.460;2022-09-13T11:57:43;2.57;;;1.67;;
16025;SDS011;8117;52.488;13.460;2022-09-13T12:00:14;4.10;;;2.53;;
16025;SDS011;8117;52.488;13.460;2022-09-13T12:02:48;3.07;;;2.23;;
16025;SDS011;8117;52.488;13.460;2022-09-13T12:05:19;4.43;;;2.53;;
16025;SDS011;8117;52.488;13.460;2022-09-13T12:07:48;2.67;;;2.23;;
16025;SDS011;8117;52.488;13.460;2022-09-13T12:10:17;4.80;;;2.73;;
16025;SDS011;8117;52.488;13.460;2022-09-13T12:12:47;3.10;;;2.17;;
16025;SDS011;8117;52.488;13.460;2022-09-13T12:15:16;3.63;;;2.33;;
16025;SDS011;8117;52.488;13.460;2022-09-13T12:17:51;3.13;;;2.40;;
16025;SDS011;8117;52.488;13.460;2022-09-13T12:20:25;3.50;;;2.53;;
16025;SDS011;8117;52.488;13.460;2022-09-13T12:22:57;4.23;;;2.57;;
16025;SDS011;8117;52.488;13.460;2022-09-13T12:25:27;2.33;;;2.10;;
16025;SDS011;8117;52.488;13.460;2022-09-13T12:28:07;2.07;;;1.70;;
16025;SDS011;8117;52.488;13.460;2022-09-13T12:30:41;2.43;;;2.20;;
16025;SDS011;8117;52.488;13.460;2022-09-13T12:33:13;5.27;;;2.53;;
16025;SDS011;8117;52.488;13.460;2022-09-13T12:35:46;2.57;;;2.03;;
16025;SDS011;8117;52.488;13.460;2022-09-13T12:41:19;5.00;;;2.70;;
16025;SDS011;8117;52.488;13.460;2022-09-13T12:44:07;2.87;;;2.17;;
16025;SDS011;8117;52.488;13.460;2022-09-13T12:47:02;3.70;;;2.37;;
16025;SDS011;8117;52.488;13.460;2022-09-13T12:52:52;4.60;;;2.30;;
16025;SDS011;8117;52.488;13.460;2022-09-13T12:55:35;2.60;;;2.40;;
16025;SDS011;8117;52.488;13.460;2022-09-13T12:58:21;3.60;;;2.37;;
16025;SDS011;8117;52.488;13.460;2022-09-13T13:01:02;4.90;;;2.83;;
16025;SDS011;8117;52.488;13.460;2022-09-13T13:03:36;3.33;;;2.30;;
16025;SDS011;8117;52.488;13.460;2022-09-13T13:06:18;5.57;;;2.90;;
16025;SDS011;8117;52.488;13.460;2022-09-13T13:08:53;4.97;;;3.53;;
16025;SDS011;8117;52.488;13.460;2022-09-13T13:11:22;4.97;;;3.70;;
16025;SDS011;8117;52.488;13.460;2022-09-13T13:13:54;3.40;;;2.97;;
16025;SDS011;8117;52.488;13.460;2022-09-13T13:16:24;5.47;;;3.53;;
16025;SDS011;8117;52.488;13.460;2022-09-13T13:18:53;4.77;;;3.03;;
16025;SDS011;8117;52.488;13.460;2022-09-13T13:21:30;4.73;;;3.00;;
16025;SDS011;8117;52.488;13.460;2022-09-13T13:33:21;5.10;;;3.10;;
16025;SDS011;8117;52.488;13.460;2022-09-13T13:35:52;11.03;;;3.60;;
16025;SDS011;8117;52.488;13.460;2022-09-13T13:38:32;3.27;;;2.77;;
16025;SDS011;8117;52.488;13.460;2022-09-13T13:47:41;2.90;;;2.40;;
16025;SDS011;8117;52.488;13.460;2022-09-13T13:50:32;3.03;;;1.97;;
16025;SDS011;8117;52.488;13.460;2022-09-13T13:53:16;2.60;;;2.17;;
16025;SDS011;8117;52.488;13.460;2022-09-13T13:55:47;4.97;;;3.03;;
16025;SDS011;8117;52.488;13.460;2022-09-13T13:58:26;3.40;;;2.50;;
16025;SDS011;8117;52.488;13.460;2022-09-13T14:01:04;2.63;;;1.97;;
16025;SDS011;8117;52.488;13.460;2022-09-13T14:03:35;3.33;;;2.20;;
16025;SDS011;8117;52.488;13.460;2022-09-13T14:06:16;2.97;;;2.57;;
16025;SDS011;8117;52.488;13.460;2022-09-13T14:08:51;3.90;;;2.37;;
16025;SDS011;8117;52.488;13.460;2022-09-13T14:11:27;4.03;;;2.00;;
16025;SDS011;8117;52.488;13.460;2022-09-13T14:14:05;3.13;;;2.17;;
16025;SDS011;8117;52.488;13.460;2022-09-13T14:16:46;2.87;;;2.10;;
16025;SDS011;8117;52.488;13.460;2022-09-13T14:19:23;2.17;;;1.83;;
16025;SDS011;8117;52.488;13.460;2022-09-13T14:22:06;2.20;;;1.73;;
16025;SDS011;8117;52.488;13.460;2022-09-13T14:24:38;2.77;;;2.00;;
16025;SDS011;8117;52.488;13.460;2022-09-13T14:27:09;2.00;;;1.63;;
16025;SDS011;8117;52.488;13.460;2022-09-13T14:29:43;2.53;;;2.33;;
16025;SDS011;8117;52.488;13.460;2022-09-13T14:32:18;2.37;;;1.40;;
16025;SDS011;8117;52.488;13.460;2022-09-13T14:37:39;2.77;;;1.53;;
16025;SDS011;8117;52.488;13.460;2022-09-13T14:40:09;2.07;;;1.70;;
16025;SDS011;8117;52.488;13.460;2022-09-13T14:42:42;2.57;;;1.93;;
16025;SDS011;8117;52.488;13.460;2022-09-13T14:45:11;2.47;;;1.83;;
16025;SDS011;8117;52.488;13.460;2022-09-13T14:47:42;1.70;;;1.60;;
16025;SDS011;8117;52.488;13.460;2022-09-13T14:50:15;2.97;;;1.63;;
16025;SDS011;8117;52.488;13.460;2022-09-13T14:52:45;4.47;;;1.77;;
16025;SDS011;8117;52.488;13.460;2022-09-13T14:55:15;4.07;;;2.57;;
16025;SDS011;8117;52.488;13.460;2022-09-13T14:57:46;2.63;;;2.03;;
16025;SDS011;8117;52.488;13.460;2022-09-13T15:00:15;3.87;;;2.13;;
16025;SDS011;8117;52.488;13.460;2022-09-13T15:02:46;2.78;;;1.70;;
16025;SDS011;8117;52.488;13.460;2022-09-13T15:05:15;3.30;;;2.17;;
16025;SDS011;8117;52.488;13.460;2022-09-13T15:07:43;2.23;;;2.00;;
16025;SDS011;8117;52.488;13.460;2022-09-13T15:10:19;3.67;;;2.30;;
16025;SDS011;8117;52.488;13.460;2022-09-13T15:12:53;4.80;;;2.60;;
16025;SDS011;8117;52.488;13.460;2022-09-13T15:15:21;3.10;;;2.17;;
16025;SDS011;8117;52.488;13.460;2022-09-13T15:18:00;4.00;;;2.33;;
16025;SDS011;8117;52.488;13.460;2022-09-13T15:20:42;1.97;;;1.77;;
16025;SDS011;8117;52.488;13.460;2022-09-13T15:23:12;3.30;;;2.20;;
16025;SDS011;8117;52.488;13.460;2022-09-13T15:25:39;2.83;;;1.80;;
16025;SDS011;8117;52.488;13.460;2022-09-13T15:28:15;7.20;;;2.50;;
16025;SDS011;8117;52.488;13.460;2022-09-13T15:30:46;2.17;;;1.98;;
16025;SDS011;8117;52.488;13.460;2022-09-13T15:33:17;3.58;;;2.10;;
16025;SDS011;8117;52.488;13.460;2022-09-13T15:35:48;3.58;;;2.00;;
16025;SDS011;8117;52.488;13.460;2022-09-13T15:38:34;2.90;;;1.80;;
16025;SDS011;8117;52.488;13.460;2022-09-13T15:41:01;2.80;;;2.30;;
16025;SDS011;8117;52.488;13.460;2022-09-13T15:43:39;2.70;;;1.77;;
16025;SDS011;8117;52.488;13.460;2022-09-13T15:46:08;3.75;;;2.00;;
16025;SDS011;8117;52.488;13.460;2022-09-13T15:48:38;3.92;;;2.72;;
16025;SDS011;8117;52.488;13.460;2022-09-13T15:51:08;3.85;;;2.35;;